createdAt,value
2023-02-14T00:01:29.266Z,1.00
2023-02-14T00:04:00.772Z,1.00
2023-02-14T00:06:29.876Z,1.00
2023-02-14T00:08:57.960Z,1.00
2023-02-14T00:11:26.095Z,1.00
2023-02-14T00:14:11.311Z,1.00
2023-02-14T00:16:39.573Z,1.00
2023-02-14T00:19:09.710Z,1.00
2023-02-14T00:21:38.960Z,1.00
2023-02-14T00:24:09.300Z,1.00
2023-02-14T00:26:42.532Z,1.00
2023-02-14T00:29:12.588Z,1.00
2023-02-14T00:31:41.496Z,1.00
2023-02-14T00:34:11.580Z,1.00
2023-02-14T00:36:40.135Z,1.00
2023-02-14T00:39:10.194Z,1.00
2023-02-14T00:41:38.443Z,1.00
2023-02-14T00:44:07.109Z,1.00
2023-02-14T00:46:35.797Z,1.00
2023-02-14T00:49:03.888Z,1.00
2023-02-14T00:51:33.378Z,1.00
2023-02-14T00:54:01.911Z,1.00
2023-02-14T00:56:29.988Z,1.00
2023-02-14T00:58:57.970Z,1.00
2023-02-14T01:01:26.113Z,1.00
2023-02-14T01:03:54.247Z,1.00
2023-02-14T01:06:22.335Z,1.00
2023-02-14T01:08:51.722Z,1.00
2023-02-14T01:11:23.084Z,1.00
2023-02-14T01:13:52.859Z,1.00
2023-02-14T01:16:23.629Z,1.00
2023-02-14T01:18:52.125Z,1.00
2023-02-14T01:21:23.323Z,1.00
2023-02-14T01:23:54.097Z,1.00
2023-02-14T01:26:22.986Z,1.00
2023-02-14T01:28:51.252Z,1.00
2023-02-14T01:31:21.953Z,1.00
2023-02-14T01:33:50.966Z,1.00
2023-02-14T01:36:20.933Z,1.00
2023-02-14T01:38:51.635Z,1.00
2023-02-14T01:41:21.259Z,1.00
2023-02-14T01:43:54.934Z,1.00
2023-02-14T01:46:23.203Z,1.00
2023-02-14T01:48:52.629Z,1.00
2023-02-14T01:51:21.798Z,1.00
2023-02-14T01:53:50.953Z,1.00
2023-02-14T01:56:26.121Z,1.00
2023-02-14T01:58:57.410Z,1.00
2023-02-14T02:01:25.781Z,1.00
2023-02-14T02:03:56.927Z,1.00
2023-02-14T02:06:29.087Z,1.00
2023-02-14T02:09:08.127Z,1.00
2023-02-14T02:11:37.941Z,1.00
2023-02-14T02:14:06.376Z,1.00
2023-02-14T02:17:04.441Z,1.00
2023-02-14T02:20:09.598Z,1.00
2023-02-14T02:23:04.350Z,1.00
2023-02-14T02:26:05.447Z,1.00
2023-02-14T02:29:05.705Z,1.00
2023-02-14T02:32:12.025Z,1.00
2023-02-14T02:35:12.400Z,1.00
2023-02-14T02:37:52.862Z,1.00
2023-02-14T02:40:33.874Z,1.00
2023-02-14T02:43:12.276Z,1.00
2023-02-14T02:46:06.597Z,1.00
2023-02-14T02:48:41.617Z,1.00
2023-02-14T02:51:31.878Z,1.00
2023-02-14T02:54:06.405Z,1.00
2023-02-14T02:56:49.909Z,1.00
2023-02-14T02:59:23.273Z,1.00
2023-02-14T03:01:56.226Z,1.00
2023-02-14T03:04:42.797Z,1.00
2023-02-14T03:07:24.667Z,1.00
2023-02-14T03:09:57.441Z,1.00
2023-02-14T03:12:48.121Z,1.00
2023-02-14T03:15:27.697Z,1.00
2023-02-14T03:18:04.705Z,1.00
2023-02-14T03:20:41.694Z,1.00
2023-02-14T03:23:14.411Z,1.00
2023-02-14T03:25:47.883Z,1.00
2023-02-14T03:28:20.074Z,1.00
2023-02-14T03:30:56.924Z,1.00
2023-02-14T03:33:34.661Z,1.00
2023-02-14T03:36:08.258Z,1.00
2023-02-14T03:38:41.036Z,1.00
2023-02-14T03:41:14.244Z,1.00
2023-02-14T03:43:46.747Z,1.00
2023-02-14T03:46:19.030Z,1.00
2023-02-14T03:48:47.372Z,1.00
2023-02-14T03:51:17.219Z,1.00
2023-02-14T03:53:48.687Z,1.00
2023-02-14T03:56:23.620Z,1.00
2023-02-14T03:58:54.968Z,1.00
2023-02-14T04:01:27.925Z,1.00
2023-02-14T04:03:58.303Z,1.00
2023-02-14T04:06:26.437Z,1.00
2023-02-14T04:08:54.453Z,1.00
2023-02-14T04:11:24.616Z,1.00
2023-02-14T04:13:52.963Z,1.00
2023-02-14T04:16:21.073Z,1.00
2023-02-14T04:19:17.873Z,1.00
2023-02-14T04:21:45.880Z,1.00
2023-02-14T04:24:13.891Z,1.00
2023-02-14T04:26:53.957Z,1.00
2023-02-14T04:29:22.067Z,1.00
2023-02-14T04:31:50.264Z,1.00
2023-02-14T04:34:18.342Z,1.00
2023-02-14T04:36:46.311Z,1.00
2023-02-14T04:39:14.303Z,1.00
2023-02-14T04:41:43.707Z,1.00
2023-02-14T04:44:11.670Z,1.00
2023-02-14T04:46:39.778Z,1.00
2023-02-14T04:49:07.891Z,1.00
2023-02-14T04:51:35.915Z,1.00
2023-02-14T04:54:04.014Z,1.00
2023-02-14T04:56:32.003Z,1.00
2023-02-14T04:59:01.434Z,1.00
2023-02-14T05:01:29.530Z,1.00
2023-02-14T05:03:57.977Z,1.00
2023-02-14T05:06:26.121Z,1.00
2023-02-14T05:08:54.372Z,1.00
2023-02-14T05:11:22.360Z,1.00
2023-02-14T05:13:50.411Z,1.00
2023-02-14T05:16:19.816Z,1.00
2023-02-14T05:18:48.275Z,1.00
2023-02-14T05:21:16.327Z,1.00
2023-02-14T05:23:44.598Z,1.00
2023-02-14T05:26:12.654Z,1.00
2023-02-14T05:28:41.699Z,1.00
2023-02-14T05:31:10.124Z,1.00
2023-02-14T05:33:39.550Z,1.00
2023-02-14T05:36:08.298Z,1.00
2023-02-14T05:38:36.319Z,1.00
2023-02-14T05:41:04.430Z,1.00
2023-02-14T05:43:32.854Z,1.00
2023-02-14T05:46:00.926Z,1.00
2023-02-14T05:48:28.944Z,1.00
2023-02-14T05:50:58.581Z,1.00
2023-02-14T05:53:26.779Z,1.00
2023-02-14T05:55:54.786Z,1.00
2023-02-14T05:58:22.868Z,1.00
2023-02-14T06:00:50.872Z,1.00
2023-02-14T06:03:18.953Z,1.00
2023-02-14T06:05:46.973Z,1.00
2023-02-14T06:08:16.371Z,1.00
2023-02-14T06:10:44.351Z,1.00
2023-02-14T06:13:12.410Z,1.00
2023-02-14T06:15:40.444Z,1.00
2023-02-14T06:18:08.602Z,1.00
2023-02-14T06:20:36.879Z,1.00
2023-02-14T06:23:04.942Z,1.00
2023-02-14T06:25:34.447Z,1.00
2023-02-14T06:28:02.487Z,1.00
2023-02-14T06:30:30.681Z,1.00
2023-02-14T06:32:58.759Z,1.00
2023-02-14T06:35:26.778Z,1.00
2023-02-14T06:37:54.808Z,1.00
2023-02-14T06:40:24.012Z,1.00
2023-02-14T06:42:53.446Z,1.00
2023-02-14T06:45:21.470Z,1.00
2023-02-14T06:47:49.545Z,1.00
2023-02-14T06:50:17.757Z,1.00
2023-02-14T06:52:45.807Z,1.00
2023-02-14T06:55:13.963Z,1.00
2023-02-14T06:57:42.106Z,1.00
2023-02-14T07:00:12.422Z,1.00
2023-02-14T07:02:40.436Z,1.00
2023-02-14T07:05:08.889Z,1.00
2023-02-14T07:07:36.883Z,1.00
2023-02-14T07:10:05.124Z,1.00
2023-02-14T07:12:33.155Z,1.00
2023-02-14T07:15:01.206Z,1.00
2023-02-14T07:17:30.631Z,1.00
2023-02-14T07:19:58.637Z,1.00
2023-02-14T07:22:26.696Z,1.00
2023-02-14T07:24:54.710Z,1.00
2023-02-14T07:27:22.686Z,1.00
2023-02-14T07:29:50.690Z,1.00
2023-02-14T07:32:18.959Z,1.00
2023-02-14T07:34:48.797Z,1.00
2023-02-14T07:37:17.715Z,1.00
2023-02-14T07:39:46.239Z,1.00
2023-02-14T07:42:14.379Z,1.00
2023-02-14T07:44:42.453Z,1.00
2023-02-14T07:47:11.507Z,1.00
2023-02-14T07:49:39.498Z,1.00
2023-02-14T07:52:08.902Z,1.00
2023-02-14T07:54:38.619Z,1.00
2023-02-14T07:57:06.687Z,1.00
2023-02-14T07:59:34.710Z,1.00
2023-02-14T08:02:02.831Z,1.00
2023-02-14T08:04:32.952Z,1.00
2023-02-14T08:07:01.897Z,1.00
2023-02-14T08:09:31.484Z,1.00
2023-02-14T08:12:17.352Z,1.00
2023-02-14T08:14:46.183Z,1.00
2023-02-14T08:17:14.498Z,1.00
2023-02-14T08:19:42.594Z,1.00
2023-02-14T08:22:10.661Z,1.00
2023-02-14T08:24:40.047Z,63.40
2023-02-14T08:27:08.031Z,99.90
2023-02-14T08:29:36.090Z,99.90
2023-02-14T08:32:04.210Z,99.90
2023-02-14T08:34:32.316Z,99.90
2023-02-14T08:37:00.324Z,1.00
2023-02-14T08:39:28.311Z,1.00
2023-02-14T08:41:57.768Z,99.90
2023-02-14T08:44:25.944Z,99.90
2023-02-14T08:46:54.050Z,99.90
2023-02-14T08:49:22.116Z,99.90
2023-02-14T08:51:50.221Z,99.90
2023-02-14T08:54:20.450Z,1.00
2023-02-14T08:56:48.665Z,1.00
2023-02-14T08:59:18.169Z,1.00
2023-02-14T09:01:46.224Z,1.00
2023-02-14T09:04:14.336Z,1.00
2023-02-14T09:06:42.420Z,1.00
2023-02-14T09:09:10.495Z,1.00
2023-02-14T09:11:38.546Z,1.00
2023-02-14T09:14:06.615Z,99.90
2023-02-14T09:16:36.112Z,99.90
2023-02-14T09:19:04.223Z,99.90
2023-02-14T09:21:32.274Z,99.90
2023-02-14T09:24:00.340Z,1.00
2023-02-14T09:26:28.837Z,1.00
2023-02-14T09:28:57.830Z,1.00
2023-02-14T09:31:26.579Z,1.00
2023-02-14T09:33:56.381Z,1.00
2023-02-14T09:36:41.668Z,1.00
2023-02-14T09:39:09.712Z,1.00
2023-02-14T09:42:16.355Z,1.00
2023-02-14T09:44:47.591Z,1.00
2023-02-14T09:47:23.569Z,1.00
2023-02-14T09:49:54.574Z,6.20
2023-02-14T09:52:26.648Z,99.90
2023-02-14T09:54:58.538Z,99.90
2023-02-14T09:57:37.010Z,99.90
2023-02-14T10:00:17.330Z,99.90
2023-02-14T10:02:55.437Z,99.90
2023-02-14T10:05:28.437Z,99.90
2023-02-14T10:08:06.608Z,99.90
2023-02-14T10:10:40.537Z,99.90
2023-02-14T10:13:20.371Z,1.00
2023-02-14T10:15:50.835Z,1.00
2023-02-14T10:18:23.315Z,43.50
2023-02-14T10:20:55.766Z,1.00
2023-02-14T10:23:33.043Z,1.00
2023-02-14T10:26:04.406Z,1.00
2023-02-14T10:28:35.391Z,1.00
2023-02-14T10:31:17.729Z,99.90
2023-02-14T10:33:57.382Z,99.90
2023-02-14T10:36:53.397Z,99.90
2023-02-14T10:39:37.208Z,63.30
2023-02-14T10:42:11.308Z,1.00
2023-02-14T10:44:49.033Z,1.00
2023-02-14T10:47:35.588Z,99.90
2023-02-14T10:50:13.355Z,94.30
2023-02-14T10:52:49.094Z,16.20
2023-02-14T10:55:32.109Z,1.00
2023-02-14T10:58:05.166Z,1.00
2023-02-14T11:00:34.903Z,1.00
2023-02-14T11:03:07.262Z,1.00
2023-02-14T11:05:36.965Z,1.00
2023-02-14T11:08:16.022Z,1.00
2023-02-14T11:10:44.206Z,1.00
2023-02-14T11:13:29.712Z,99.90
2023-02-14T11:16:02.015Z,99.90
2023-02-14T11:18:33.135Z,99.90
2023-02-14T11:21:10.382Z,99.90
2023-02-14T11:23:42.209Z,99.90
2023-02-14T11:26:17.655Z,99.90
2023-02-14T11:28:55.352Z,99.90
2023-02-14T11:31:31.706Z,99.90
2023-02-14T11:34:00.269Z,99.90
2023-02-14T11:36:28.665Z,20.40
2023-02-14T11:39:03.174Z,1.00
2023-02-14T11:41:48.483Z,1.00
2023-02-14T11:44:22.641Z,1.00
2023-02-14T11:46:53.524Z,1.00
2023-02-14T11:49:29.650Z,1.00
2023-02-14T11:51:59.507Z,1.00
2023-02-14T11:54:35.898Z,1.00
2023-02-14T11:57:07.634Z,1.00
2023-02-14T11:59:41.858Z,1.00
2023-02-14T12:02:25.184Z,1.00
2023-02-14T12:04:56.960Z,1.00
2023-02-14T12:07:29.965Z,1.00
2023-02-14T12:10:24.454Z,1.00
2023-02-14T12:12:56.246Z,1.00
2023-02-14T12:15:50.783Z,1.00
2023-02-14T12:18:42.392Z,1.00
2023-02-14T12:21:24.611Z,1.00
2023-02-14T12:24:01.782Z,1.00
2023-02-14T12:26:36.076Z,1.00
2023-02-14T12:29:14.040Z,1.00
2023-02-14T12:31:43.159Z,1.00
2023-02-14T12:34:12.716Z,1.00
2023-02-14T12:37:04.855Z,1.00
2023-02-14T12:39:39.202Z,1.00
2023-02-14T12:42:22.804Z,1.00
2023-02-14T12:44:59.969Z,1.00
2023-02-14T12:47:38.738Z,1.00
2023-02-14T12:50:32.566Z,1.00
2023-02-14T12:53:31.888Z,1.00
2023-02-14T12:56:11.777Z,1.00
2023-02-14T12:58:50.589Z,1.00
2023-02-14T13:01:46.374Z,1.00
2023-02-14T13:04:33.992Z,1.00
2023-02-14T13:07:09.243Z,1.00
2023-02-14T13:09:46.676Z,1.00
2023-02-14T13:12:29.771Z,1.00
2023-02-14T13:15:12.889Z,1.00
2023-02-14T13:17:45.641Z,1.00
2023-02-14T13:20:48.455Z,1.00
2023-02-14T13:23:19.101Z,1.00
2023-02-14T13:25:51.957Z,1.00
2023-02-14T13:28:21.227Z,1.00
2023-02-14T13:30:50.853Z,1.00
2023-02-14T13:33:34.065Z,1.00
2023-02-14T13:36:05.065Z,1.00
2023-02-14T13:38:33.631Z,1.00
2023-02-14T13:41:05.441Z,1.00
2023-02-14T13:43:54.984Z,1.00
2023-02-14T13:46:48.770Z,1.00
2023-02-14T13:49:32.830Z,1.00
2023-02-14T13:52:03.900Z,1.00
2023-02-14T13:54:38.733Z,1.00
2023-02-14T13:57:26.960Z,1.00
2023-02-14T14:00:25.447Z,1.00
2023-02-14T14:02:55.596Z,1.00
2023-02-14T14:06:00.284Z,1.00
2023-02-14T14:08:42.816Z,1.00
2023-02-14T14:11:34.595Z,1.00
2023-02-14T14:14:05.119Z,1.00
2023-02-14T14:16:35.104Z,1.00
2023-02-14T14:19:12.209Z,1.00
2023-02-14T14:21:43.525Z,1.00
2023-02-14T14:24:23.052Z,1.00
2023-02-14T14:26:54.402Z,1.00
2023-02-14T14:29:28.416Z,1.00
2023-02-14T14:31:56.902Z,1.00
2023-02-14T14:34:28.510Z,1.00
2023-02-14T14:37:04.045Z,1.00
2023-02-14T14:39:34.750Z,1.00
2023-02-14T14:42:13.872Z,1.00
2023-02-14T14:44:48.213Z,1.00
2023-02-14T14:47:20.851Z,1.00
2023-02-14T14:49:50.403Z,1.00
2023-02-14T14:52:32.509Z,1.00
2023-02-14T14:55:01.947Z,1.00
2023-02-14T14:57:29.964Z,1.00
2023-02-14T15:00:20.556Z,1.00
2023-02-14T15:03:03.959Z,1.00
2023-02-14T15:05:35.824Z,1.00
2023-02-14T15:08:23.369Z,1.00
2023-02-14T15:10:55.695Z,1.00
2023-02-14T15:13:49.691Z,1.00
2023-02-14T15:16:22.621Z,1.00
2023-02-14T15:18:52.044Z,1.00
2023-02-14T15:21:21.723Z,1.00
2023-02-14T15:23:50.480Z,1.00
2023-02-14T15:26:20.079Z,1.00
2023-02-14T15:28:56.417Z,1.00
2023-02-14T15:31:26.422Z,1.00
2023-02-14T15:33:54.647Z,1.00
2023-02-14T15:36:25.601Z,1.00
2023-02-14T15:38:56.735Z,1.00
2023-02-14T15:41:26.885Z,1.00
2023-02-14T15:43:57.302Z,1.00
2023-02-14T15:46:34.572Z,1.00
2023-02-14T15:49:08.580Z,1.00
2023-02-14T15:51:39.879Z,1.00
2023-02-14T15:54:19.876Z,1.00
2023-02-14T15:56:50.452Z,1.00
2023-02-14T15:59:21.598Z,1.00
2023-02-14T16:01:54.855Z,1.00
2023-02-14T16:04:28.278Z,1.00
2023-02-14T16:07:22.268Z,1.00
2023-02-14T16:09:51.317Z,1.00
2023-02-14T16:12:32.926Z,1.00
2023-02-14T16:15:04.492Z,1.00
2023-02-14T16:17:34.225Z,1.00
2023-02-14T16:20:24.362Z,1.00
2023-02-14T16:22:54.037Z,1.00
2023-02-14T16:25:22.278Z,1.00
2023-02-14T16:27:51.295Z,1.00
2023-02-14T16:30:20.431Z,1.00
2023-02-14T16:32:53.704Z,1.00
2023-02-14T16:35:22.976Z,1.00
2023-02-14T16:37:53.508Z,1.00
2023-02-14T16:40:26.969Z,1.00
2023-02-14T16:42:55.143Z,1.00
2023-02-14T16:45:23.346Z,1.00
2023-02-14T16:47:51.499Z,1.00
2023-02-14T16:50:20.445Z,1.00
2023-02-14T16:52:52.445Z,1.00
2023-02-14T16:55:22.023Z,1.00
2023-02-14T16:57:53.044Z,1.00
2023-02-14T17:00:23.848Z,1.00
2023-02-14T17:02:51.991Z,1.00
2023-02-14T17:05:20.146Z,1.00
2023-02-14T17:07:48.296Z,1.00
2023-02-14T17:10:19.209Z,1.00
2023-02-14T17:12:50.346Z,1.00
2023-02-14T17:15:21.390Z,1.00
2023-02-14T17:17:51.787Z,1.00
2023-02-14T17:20:21.975Z,1.00
2023-02-14T17:22:50.133Z,1.00
2023-02-14T17:25:18.485Z,1.00
2023-02-14T17:27:48.333Z,1.00
2023-02-14T17:30:17.822Z,1.00
2023-02-14T17:32:46.165Z,1.00
2023-02-14T17:35:14.552Z,1.00
2023-02-14T17:37:43.035Z,1.00
2023-02-14T17:40:12.203Z,1.00
2023-02-14T17:42:40.247Z,1.00
2023-02-14T17:45:11.948Z,1.00
2023-02-14T17:47:43.036Z,1.00
2023-02-14T17:50:11.788Z,1.00
2023-02-14T17:52:40.043Z,1.00
2023-02-14T17:55:09.485Z,1.00
2023-02-14T17:57:39.154Z,1.00
2023-02-14T18:00:12.052Z,1.00
2023-02-14T18:02:40.169Z,1.00
2023-02-14T18:05:09.087Z,1.00
2023-02-14T18:07:38.166Z,1.00
2023-02-14T18:10:07.250Z,1.00
2023-02-14T18:12:35.434Z,1.00
2023-02-14T18:15:03.473Z,1.00
2023-02-14T18:17:32.910Z,1.00
2023-02-14T18:20:00.993Z,1.00
2023-02-14T18:22:29.384Z,1.00
2023-02-14T18:24:58.840Z,1.00
2023-02-14T18:27:27.451Z,1.00
2023-02-14T18:29:55.578Z,1.00
2023-02-14T18:32:24.085Z,1.00
2023-02-14T18:34:53.982Z,1.00
2023-02-14T18:37:22.136Z,1.00
2023-02-14T18:39:50.193Z,1.00
2023-02-14T18:42:18.249Z,1.00
2023-02-14T18:44:46.538Z,1.00
2023-02-14T18:47:14.518Z,1.00
2023-02-14T18:49:42.852Z,1.00
2023-02-14T18:52:12.341Z,1.00
2023-02-14T18:54:40.663Z,1.00
2023-02-14T18:57:09.296Z,1.00
2023-02-14T18:59:37.311Z,1.00
2023-02-14T19:02:05.358Z,1.00
2023-02-14T19:04:33.409Z,1.00
2023-02-14T19:07:04.380Z,1.00
2023-02-14T19:09:38.998Z,1.00
2023-02-14T19:12:07.920Z,1.00
2023-02-14T19:14:36.323Z,1.00
2023-02-14T19:17:05.605Z,1.00
2023-02-14T19:19:33.672Z,1.00
2023-02-14T19:22:02.500Z,1.00
2023-02-14T19:24:30.571Z,1.00
2023-02-14T19:27:00.011Z,1.00
2023-02-14T19:29:28.145Z,1.00
2023-02-14T19:31:56.578Z,1.00
2023-02-14T19:34:28.916Z,1.00
2023-02-14T19:36:59.865Z,1.00
2023-02-14T19:39:29.444Z,1.00
2023-02-14T19:42:00.228Z,1.00
2023-02-14T19:44:31.208Z,1.00
2023-02-14T19:47:04.104Z,1.00
2023-02-14T19:49:36.365Z,1.00
2023-02-14T19:52:09.496Z,1.00
2023-02-14T19:54:42.442Z,1.00
2023-02-14T19:57:15.109Z,1.00
2023-02-14T19:59:43.205Z,1.00
2023-02-14T20:02:16.464Z,1.00
2023-02-14T20:04:44.725Z,1.00
2023-02-14T20:07:13.016Z,1.00
2023-02-14T20:09:41.137Z,1.00
2023-02-14T20:12:10.736Z,3.50
2023-02-14T20:14:50.957Z,1.00
2023-02-14T20:17:19.961Z,2.20
2023-02-14T20:19:48.971Z,9.10
2023-02-14T20:22:16.998Z,13.20
2023-02-14T20:24:45.172Z,52.40
2023-02-14T20:27:13.352Z,89.20
2023-02-14T20:29:45.004Z,65.40
2023-02-14T20:32:14.847Z,63.70
2023-02-14T20:34:43.607Z,59.80
2023-02-14T20:37:12.110Z,89.80
2023-02-14T20:39:40.843Z,93.50
2023-02-14T20:42:09.176Z,89.30
2023-02-14T20:44:37.868Z,99.90
2023-02-14T20:47:07.531Z,99.90
2023-02-14T20:49:35.813Z,99.90
2023-02-14T20:52:04.037Z,99.90
2023-02-14T20:54:32.139Z,99.90
2023-02-14T20:57:00.138Z,99.90
2023-02-14T20:59:28.810Z,99.90
2023-02-14T21:01:58.105Z,99.90
2023-02-14T21:04:28.053Z,99.90
2023-02-14T21:06:57.933Z,99.90
2023-02-14T21:09:26.143Z,99.90
2023-02-14T21:11:54.897Z,99.90
2023-02-14T21:14:22.988Z,99.90
2023-02-14T21:16:51.094Z,99.90
2023-02-14T21:19:19.825Z,99.90
2023-02-14T21:21:49.311Z,99.90
2023-02-14T21:24:17.815Z,99.90
2023-02-14T21:26:46.240Z,99.90
2023-02-14T21:29:14.265Z,99.90
2023-02-14T21:31:43.181Z,99.90
2023-02-14T21:34:11.640Z,99.90
2023-02-14T21:36:39.695Z,99.90
2023-02-14T21:39:09.257Z,99.90
2023-02-14T21:41:37.753Z,99.90
2023-02-14T21:44:06.886Z,99.90
2023-02-14T21:46:40.986Z,99.90
2023-02-14T21:49:26.325Z,99.90
2023-02-14T21:51:54.418Z,99.90
2023-02-14T21:54:23.833Z,99.90
2023-02-14T21:56:51.853Z,99.90
2023-02-14T21:59:19.822Z,99.90
2023-02-14T22:01:47.907Z,99.90
2023-02-14T22:04:16.229Z,99.90
2023-02-14T22:06:44.390Z,99.90
2023-02-14T22:09:14.867Z,99.90
2023-02-14T22:11:44.249Z,99.90
2023-02-14T22:14:14.493Z,99.90
2023-02-14T22:16:43.373Z,99.90
2023-02-14T22:19:14.798Z,99.90
2023-02-14T22:21:44.771Z,99.90
2023-02-14T22:24:13.717Z,99.90
2023-02-14T22:26:43.277Z,99.90
2023-02-14T22:29:13.671Z,99.90
2023-02-14T22:31:43.447Z,99.90
2023-02-14T22:34:14.329Z,99.90
2023-02-14T22:36:42.608Z,99.90
2023-02-14T22:39:11.532Z,99.90
2023-02-14T22:41:39.673Z,99.90
2023-02-14T22:44:09.242Z,99.90
2023-02-14T22:46:37.887Z,99.90
2023-02-14T22:49:06.355Z,99.90
2023-02-14T22:51:36.220Z,99.90
2023-02-14T22:54:06.730Z,99.90
2023-02-14T22:56:36.959Z,99.90
2023-02-14T22:59:06.871Z,99.90
2023-02-14T23:01:37.194Z,99.90
2023-02-14T23:04:05.913Z,99.90
2023-02-14T23:06:36.418Z,99.90
2023-02-14T23:09:07.678Z,99.90
2023-02-14T23:11:37.882Z,1.00
2023-02-14T23:14:24.312Z,1.00
2023-02-14T23:17:19.804Z,1.00
2023-02-14T23:20:05.874Z,1.00
2023-02-14T23:22:35.418Z,1.00
2023-02-14T23:25:06.306Z,1.00
2023-02-14T23:27:36.647Z,1.00
2023-02-14T23:30:06.318Z,1.00
2023-02-14T23:32:35.790Z,1.00
2023-02-14T23:35:03.855Z,1.00
2023-02-14T23:37:31.889Z,1.00
2023-02-14T23:39:59.892Z,1.00
2023-02-14T23:42:28.232Z,99.90
2023-02-14T23:45:16.284Z,1.00
2023-02-14T23:47:45.726Z,1.00
2023-02-14T23:50:13.714Z,1.00
2023-02-14T23:52:42.398Z,1.00
2023-02-14T23:55:11.204Z,1.00
2023-02-14T23:57:39.591Z,1.00
